Terminal Aerodrome Forecast
Issued by NWS

Home | Current Version | Previous Version | Text Only | Print | Product List | Glossary Off
Versions: 1 2 3 4 5 6 7 8 9 10 11 12 13 14 15 16 17

000
FTUS43 KTOP 201100
TAFFOE
TAF
KFOE 201120Z 2012/2112 03010KT P6SM OVC007
      TEMPO 2012/2016 OVC011
     FM201800 03012KT P6SM BKN013
     FM210600 VRB04KT P6SM SCT015=

USA.gov is the U.S. government's official web portal to all federal, state and local government web resources and services.